Time;durP1;ratioP1;P1;durP2;ratioP2;P2;SDS_P1;SDS_P2;PMS_P1;PMS_P2;Temp;Humidity;BMP_temperature;BMP_pressure;BME280_temperature;BME280_humidity;BME280_pressure;Samples;Min_cycle;Max_cycle;Signal;HPM_P1;HPM_P2
2023/08/09 00:00:16;;;;;;;2.55;2.10;;;;;;;12.46;94.35;100563.78;7399559;19;20397;-65
2023/08/09 00:02:44;;;;;;;4.57;2.40;;;;;;;12.45;94.13;100565.56;7398999;19;20078;-65
2023/08/09 00:05:13;;;;;;;2.70;2.08;;;;;;;12.44;93.95;100557.72;7399209;19;20074;-65
2023/08/09 00:07:41;;;;;;;3.47;2.13;;;;;;;12.42;94.10;100543.75;7398658;19;20010;-65
2023/08/09 00:10:10;;;;;;;3.20;2.00;;;;;;;12.42;93.91;100552.50;7396722;19;20511;-65
2023/08/09 00:12:38;;;;;;;4.00;2.08;;;;;;;12.41;93.83;100560.44;7398426;19;20074;-65
2023/08/09 00:15:11;;;;;;;3.95;2.22;;;;;;;12.39;94.02;100563.13;7396554;19;20018;-65
2023/08/09 00:17:39;;;;;;;3.35;2.20;;;;;;;12.38;93.85;100562.28;7398914;19;20423;-65
2023/08/09 00:20:15;;;;;;;2.83;2.50;;;;;;;12.36;93.68;100553.56;7397029;19;20426;-65
2023/08/09 00:22:44;;;;;;;6.85;2.72;;;;;;;12.35;93.76;100564.16;7396358;19;20022;-66
2023/08/09 00:25:13;;;;;;;4.25;2.95;;;;;;;12.34;93.91;100560.63;7398189;19;20023;-67
2023/08/09 00:27:42;;;;;;;4.20;2.10;;;;;;;12.33;94.02;100558.94;7398467;19;20010;-64
2023/08/09 00:30:14;;;;;;;4.38;2.63;;;;;;;12.31;93.90;100554.63;7397306;19;20015;-66
2023/08/09 00:32:42;;;;;;;5.57;2.90;;;;;;;12.30;93.88;100555.56;7395901;19;20420;-66
2023/08/09 00:35:12;;;;;;;6.82;4.38;;;;;;;12.28;94.15;100565.25;7396184;19;20085;-66
2023/08/09 00:37:41;;;;;;;7.43;4.20;;;;;;;12.26;94.18;100570.56;7398040;19;20041;-65
2023/08/09 00:40:11;;;;;;;9.32;5.97;;;;;;;12.25;94.17;100568.84;7396042;19;20011;-66
2023/08/09 00:42:40;;;;;;;5.85;4.10;;;;;;;12.24;94.14;100572.38;7398123;19;20021;-65
2023/08/09 00:45:10;;;;;;;3.33;2.53;;;;;;;12.24;94.27;100580.25;7397835;19;20014;-66
2023/08/09 00:47:41;;;;;;;4.75;4.25;;;;;;;12.22;94.29;100580.31;7397751;19;20010;-65
2023/08/09 00:50:11;;;;;;;6.07;3.10;;;;;;;12.21;94.21;100583.00;7395384;19;20485;-66
2023/08/09 00:52:40;;;;;;;10.18;6.15;;;;;;;12.19;94.55;100590.91;7397110;19;20007;-66
2023/08/09 00:55:10;;;;;;;7.68;4.40;;;;;;;12.16;94.32;100583.13;7397122;19;20069;-66
2023/08/09 00:57:38;;;;;;;19.75;10.98;;;;;;;12.14;94.50;100571.78;7395565;19;20014;-65
2023/08/09 01:00:09;;;;;;;14.90;7.05;;;;;;;12.14;94.87;100569.16;7396930;19;20086;-65
2023/08/09 01:02:40;;;;;;;8.70;4.90;;;;;;;12.13;94.82;100563.94;7397324;19;20013;-65
2023/08/09 01:05:09;;;;;;;10.20;6.72;;;;;;;12.12;94.69;100571.00;7395856;19;20014;-65
2023/08/09 01:07:42;;;;;;;16.23;10.77;;;;;;;12.11;94.75;100574.53;7397030;19;20073;-65
2023/08/09 01:10:41;;;;;;;14.82;6.72;;;;;;;12.12;94.68;100581.50;7395988;19;20358;-64
2023/08/09 01:13:10;;;;;;;8.25;6.47;;;;;;;12.11;94.52;100579.78;7396171;19;20533;-65
2023/08/09 01:15:41;;;;;;;15.85;12.02;;;;;;;12.12;94.68;100580.63;7396909;19;20078;-65
2023/08/09 01:18:19;;;;;;;8.02;5.32;;;;;;;12.10;94.57;100583.31;7395340;19;20013;-65
2023/08/09 01:20:55;;;;;;;5.60;4.50;;;;;;;12.10;94.63;100582.47;7394633;19;20377;-65
2023/08/09 01:23:23;;;;;;;7.47;4.63;;;;;;;12.09;94.78;100586.84;7396049;19;20074;-65
2023/08/09 01:25:55;;;;;;;4.55;3.80;;;;;;;12.09;94.71;100589.47;7394464;19;20078;-65
2023/08/09 01:28:23;;;;;;;6.72;3.53;;;;;;;12.06;94.67;100600.09;7396219;19;20014;-65
2023/08/09 01:30:52;;;;;;;7.38;4.15;;;;;;;12.06;94.85;100602.72;7394260;19;20540;-65
2023/08/09 01:33:20;;;;;;;6.85;3.78;;;;;;;12.05;94.81;100586.06;7395710;19;20014;-66
2023/08/09 01:35:55;;;;;;;5.13;3.90;;;;;;;12.05;94.92;100583.44;7396222;19;20023;-65
2023/08/09 01:38:28;;;;;;;5.68;3.85;;;;;;;12.04;95.09;100572.97;7396624;19;20014;-66
2023/08/09 01:41:00;;;;;;;8.90;4.20;;;;;;;12.04;95.16;100572.97;7394893;19;20034;-68
2023/08/09 01:43:30;;;;;;;5.32;4.22;;;;;;;12.04;95.29;100567.72;7394951;19;20077;-65
2023/08/09 01:45:59;;;;;;;4.75;4.25;;;;;;;12.04;95.31;100562.47;7393940;19;20482;-67
2023/08/09 01:48:27;;;;;;;6.03;3.58;;;;;;;12.04;95.40;100567.72;7395782;19;20018;-65
2023/08/09 01:50:56;;;;;;;6.18;4.05;;;;;;;12.04;95.54;100549.31;7393998;19;20031;-65
2023/08/09 01:53:24;;;;;;;6.50;3.92;;;;;;;12.01;95.42;100546.81;7395108;19;20098;-65
2023/08/09 01:55:53;;;;;;;5.72;4.03;;;;;;;12.03;96.06;100548.47;7395639;19;20025;-65
2023/08/09 01:58:24;;;;;;;5.55;3.67;;;;;;;12.00;96.02;100551.19;7395612;19;20094;-65
2023/08/09 02:00:52;;;;;;;6.95;3.42;;;;;;;12.00;96.17;100572.22;7394066;19;20070;-65
2023/08/09 02:03:21;;;;;;;7.22;4.07;;;;;;;12.00;96.26;100548.53;7393229;19;20363;-65
2023/08/09 02:05:49;;;;;;;6.45;5.07;;;;;;;11.98;96.21;100553.00;7393612;19;20076;-66
2023/08/09 02:08:18;;;;;;;5.53;4.10;;;;;;;11.97;96.52;100559.19;7395298;19;20023;-66
2023/08/09 02:10:46;;;;;;;5.97;4.32;;;;;;;11.95;96.68;100557.47;7394280;19;20380;-66
2023/08/09 02:13:15;;;;;;;5.55;4.65;;;;;;;11.93;96.78;100562.78;7394578;19;20167;-66
2023/08/09 02:15:46;;;;;;;6.43;4.75;;;;;;;11.93;96.90;100565.41;7394648;19;20492;-66
2023/08/09 02:18:14;;;;;;;5.93;4.38;;;;;;;11.91;96.98;100564.59;7397399;19;20549;-65
2023/08/09 02:20:49;;;;;;;7.80;4.82;;;;;;;11.90;97.32;100571.63;7399780;19;20037;-66
2023/08/09 02:23:24;;;;;;;5.05;4.55;;;;;;;11.89;97.36;100564.63;7402007;19;20098;-66
2023/08/09 02:25:55;;;;;;;7.03;4.53;;;;;;;11.87;97.54;100555.91;7401939;19;20010;-66
2023/08/09 02:28:23;;;;;;;6.45;4.60;;;;;;;11.87;97.85;100561.19;7402348;19;20360;-66
2023/08/09 02:30:56;;;;;;;10.05;5.20;;;;;;;11.86;97.78;100566.50;7400853;19;20078;-65
2023/08/09 02:33:24;;;;;;;9.07;5.35;;;;;;;11.85;98.00;100562.13;7401105;19;20366;-66
2023/08/09 02:35:56;;;;;;;7.00;5.10;;;;;;;11.84;98.12;100569.16;7401810;19;20035;-66
2023/08/09 02:38:24;;;;;;;9.00;5.93;;;;;;;11.82;98.23;100563.09;7398754;19;20029;-66
2023/08/09 02:40:53;;;;;;;9.25;5.70;;;;;;;11.80;98.51;100564.88;7401349;19;20082;-66
2023/08/09 02:43:23;;;;;;;11.15;6.40;;;;;;;11.77;98.82;100567.63;7398578;19;20492;-66
2023/08/09 02:45:56;;;;;;;9.23;5.97;;;;;;;11.73;99.08;100566.84;7402233;19;20037;-66
2023/08/09 02:48:25;;;;;;;9.35;6.47;;;;;;;11.72;99.47;100569.53;7402232;19;20187;-66
2023/08/09 02:50:54;;;;;;;9.32;6.80;;;;;;;11.70;99.63;100569.59;7400242;19;20018;-66
2023/08/09 02:53:22;;;;;;;13.95;6.97;;;;;;;11.68;99.80;100560.03;7398814;19;20094;-66
2023/08/09 02:55:51;;;;;;;10.65;6.88;;;;;;;11.67;100.00;100567.03;7401586;19;20078;-64
2023/08/09 02:58:19;;;;;;;9.43;7.35;;;;;;;11.65;100.00;100575.84;7400906;19;20427;-66
2023/08/09 03:00:47;;;;;;;9.75;7.60;;;;;;;11.66;100.00;100572.34;7401429;19;20086;-66
2023/08/09 03:03:18;;;;;;;9.93;7.45;;;;;;;11.64;100.00;100559.25;7400070;19;20429;-66
2023/08/09 03:05:47;;;;;;;12.85;7.70;;;;;;;11.64;100.00;100563.63;7401035;19;20018;-66
2023/08/09 03:08:15;;;;;;;9.25;7.53;;;;;;;11.62;100.00;100575.97;7400631;19;20015;-67
2023/08/09 03:10:44;;;;;;;9.38;7.47;;;;;;;11.59;100.00;100574.28;7399843;19;20011;-67
2023/08/09 03:13:12;;;;;;;8.90;7.57;;;;;;;11.57;100.00;100579.59;7399625;19;20384;-67
2023/08/09 03:15:41;;;;;;;9.25;7.80;;;;;;;11.55;100.00;100575.25;7400741;19;20035;-68
2023/08/09 03:18:09;;;;;;;10.80;8.50;;;;;;;11.53;100.00;100584.97;7400779;19;20032;-66
2023/08/09 03:20:40;;;;;;;8.30;7.40;;;;;;;11.50;100.00;100567.53;7397447;19;20027;-66
2023/08/09 03:23:09;;;;;;;10.25;8.00;;;;;;;11.49;100.00;100570.19;7399944;19;20082;-66
2023/08/09 03:25:38;;;;;;;12.70;8.13;;;;;;;11.48;100.00;100587.72;7397972;19;20014;-66
2023/08/09 03:28:07;;;;;;;12.85;8.07;;;;;;;11.46;100.00;100584.28;7400402;19;20019;-66
2023/08/09 03:30:35;;;;;;;14.02;8.35;;;;;;;11.47;100.00;100587.75;7396945;19;20083;-66
2023/08/09 03:33:04;;;;;;;13.88;7.85;;;;;;;11.44;100.00;100588.72;7399742;19;20018;-66
2023/08/09 03:35:32;;;;;;;14.15;8.77;;;;;;;11.43;100.00;100584.34;7399500;19;20010;-67
2023/08/09 03:38:05;;;;;;;12.95;11.10;;;;;;;11.44;100.00;100588.72;7397498;19;20074;-67
2023/08/09 03:40:33;;;;;;;10.13;8.95;;;;;;;11.43;100.00;100610.63;7400480;19;20024;-68
2023/08/09 03:43:01;;;;;;;9.68;7.97;;;;;;;11.41;100.00;100612.41;7399445;19;20023;-67
2023/08/09 03:45:30;;;;;;;8.73;7.63;;;;;;;11.42;100.00;100595.75;7399160;19;20517;-67
2023/08/09 03:47:58;;;;;;;13.77;8.50;;;;;;;11.41;100.00;100583.53;7401944;19;20078;-69
2023/08/09 03:50:27;;;;;;;11.43;7.90;;;;;;;11.41;100.00;100588.78;7398506;19;20018;-68
2023/08/09 03:52:56;;;;;;;11.10;7.38;;;;;;;11.41;100.00;100584.41;7400315;19;20024;-68
2023/08/09 03:55:27;;;;;;;14.07;8.45;;;;;;;11.41;100.00;100594.03;7399801;19;20476;-66
2023/08/09 03:57:56;;;;;;;9.02;6.68;;;;;;;11.40;100.00;100613.34;7397629;19;20022;-66
2023/08/09 04:00:26;;;;;;;10.55;6.78;;;;;;;11.36;100.00;100619.56;7399748;19;20014;-67
2023/08/09 04:02:54;;;;;;;7.85;6.72;;;;;;;11.39;100.00;100606.38;7397909;19;20041;-68
2023/08/09 04:05:23;;;;;;;11.45;7.13;;;;;;;11.38;100.00;100578.38;7399830;19;20037;-69
2023/08/09 04:07:52;;;;;;;11.20;7.35;;;;;;;11.39;100.00;100580.09;7399714;19;20035;-68
2023/08/09 04:10:20;;;;;;;8.43;6.43;;;;;;;11.38;100.00;100592.34;7399569;19;20015;-70
2023/08/09 04:12:51;;;;;;;6.53;5.63;;;;;;;11.39;100.00;100606.38;7399103;19;20037;-67
2023/08/09 04:15:21;;;;;;;7.25;5.78;;;;;;;11.38;100.00;100600.22;7400140;19;20027;-67
2023/08/09 04:17:50;;;;;;;6.88;5.70;;;;;;;11.39;100.00;100586.19;7399405;19;20045;-68
2023/08/09 04:20:19;;;;;;;9.23;5.65;;;;;;;11.39;100.00;100545.94;7399003;19;20343;-68
2023/08/09 04:22:47;;;;;;;6.57;5.65;;;;;;;11.38;100.00;100546.84;7399025;19;20014;-68
2023/08/09 04:25:17;;;;;;;6.75;5.40;;;;;;;11.38;100.00;100579.22;7398241;19;20459;-69
2023/08/09 04:27:46;;;;;;;5.45;4.95;;;;;;;11.38;100.00;100570.50;7398508;19;20018;-67
2023/08/09 04:30:18;;;;;;;8.25;5.30;;;;;;;11.39;100.00;100624.75;7395951;19;20014;-67
2023/08/09 04:32:47;;;;;;;8.52;5.57;;;;;;;11.40;100.00;100637.00;7395980;19;20035;-67
2023/08/09 04:35:15;;;;;;;16.35;13.13;;;;;;;11.40;100.00;100637.00;7395992;19;20014;-67
2023/08/09 04:37:43;;;;;;;7.53;6.32;;;;;;;11.39;100.00;100638.75;7397809;19;20028;-67
2023/08/09 04:40:13;;;;;;;8.20;5.43;;;;;;;11.41;100.00;100636.06;7394299;19;20027;-67
2023/08/09 04:42:43;;;;;;;5.55;4.35;;;;;;;11.39;100.00;100644.00;7397579;19;20018;-67
2023/08/09 04:45:12;;;;;;;7.75;5.03;;;;;;;11.40;100.00;100658.00;7397256;19;20536;-67
2023/08/09 04:47:43;;;;;;;6.85;4.72;;;;;;;11.40;100.00;100647.50;7397174;19;20017;-67
2023/08/09 04:50:12;;;;;;;5.82;4.53;;;;;;;11.42;100.00;100653.56;7394878;19;20015;-69
2023/08/09 04:52:42;;;;;;;5.15;4.32;;;;;;;11.43;100.00;100657.06;7395258;19;20018;-67
2023/08/09 04:55:11;;;;;;;5.25;4.75;;;;;;;11.43;100.00;100652.66;7397320;19;20010;-67
2023/08/09 04:57:40;;;;;;;5.32;4.60;;;;;;;11.44;100.00;100646.50;7398259;19;20110;-68
2023/08/09 05:00:11;;;;;;;6.10;4.00;;;;;;;11.46;100.00;100652.59;7395595;19;20007;-69
2023/08/09 05:02:42;;;;;;;6.53;4.40;;;;;;;11.48;100.00;100648.13;7397956;19;20122;-67
2023/08/09 05:05:12;;;;;;;6.07;4.05;;;;;;;11.49;100.00;100644.63;7396531;19;20010;-67
2023/08/09 05:07:41;;;;;;;6.35;4.35;;;;;;;11.51;100.00;100639.31;7397208;19;20023;-67
2023/08/09 05:10:12;;;;;;;10.43;3.85;;;;;;;11.54;100.00;100655.84;7396364;19;20346;-70
2023/08/09 05:12:40;;;;;;;4.47;4.03;;;;;;;11.54;100.00;100647.97;7395245;19;20013;-67
2023/08/09 05:15:10;;;;;;;8.00;4.97;;;;;;;11.57;100.00;100660.16;7396683;19;20502;-67
2023/08/09 05:17:38;;;;;;;8.02;3.72;;;;;;;11.59;100.00;100655.75;7396312;19;20415;-67
2023/08/09 05:20:11;;;;;;;6.70;3.45;;;;;;;11.60;100.00;100656.59;7395328;19;20698;-71
2023/08/09 05:22:39;;;;;;;9.60;3.58;;;;;;;11.61;100.00;100661.78;7397057;19;20035;-69
2023/08/09 05:25:08;;;;;;;5.80;3.78;;;;;;;11.63;100.00;100664.41;7396007;19;20489;-67
2023/08/09 05:27:37;;;;;;;4.18;3.63;;;;;;;11.63;100.00;100665.25;7396433;19;20015;-67
2023/08/09 05:30:06;;;;;;;6.63;3.65;;;;;;;11.64;100.00;100658.22;7396425;19;20011;-67
2023/08/09 05:32:35;;;;;;;4.07;3.65;;;;;;;11.66;100.00;100656.41;7394607;19;20010;-67
2023/08/09 05:35:04;;;;;;;8.48;4.63;;;;;;;11.67;100.00;100656.38;7394524;19;20033;-67
2023/08/09 05:37:35;;;;;;;6.65;3.38;;;;;;;11.67;100.00;100659.00;7396192;19;20089;-68
2023/08/09 05:40:03;;;;;;;14.20;9.60;;;;;;;11.66;100.00;100661.69;7396438;19;20027;-68
2023/08/09 05:42:32;;;;;;;6.00;4.43;;;;;;;11.66;100.00;100666.94;7395429;19;20380;-68
2023/08/09 05:45:01;;;;;;;5.65;3.22;;;;;;;11.63;100.00;100673.13;7394479;19;20018;-66
2023/08/09 05:47:29;;;;;;;3.88;3.42;;;;;;;11.62;100.00;100673.19;7395196;19;20011;-67
2023/08/09 05:49:58;;;;;;;5.78;3.95;;;;;;;11.62;100.00;100662.69;7394617;19;20051;-66
2023/08/09 05:52:26;;;;;;;4.15;3.20;;;;;;;11.61;100.00;100674.09;7391363;19;20034;-68
2023/08/09 05:54:57;;;;;;;6.28;3.92;;;;;;;11.60;100.00;100686.38;7394053;19;20023;-67
2023/08/09 05:57:26;;;;;;;6.35;3.22;;;;;;;11.61;100.00;100681.97;7394302;19;20018;-67
2023/08/09 05:59:54;;;;;;;10.07;4.03;;;;;;;11.62;100.00;100679.28;7393760;19;20031;-67
2023/08/09 06:02:23;;;;;;;4.93;3.42;;;;;;;11.62;100.00;100694.22;7393339;19;20007;-68
2023/08/09 06:04:51;;;;;;;4.55;3.78;;;;;;;11.62;100.00;100692.44;7392851;19;20021;-66
2023/08/09 06:07:20;;;;;;;5.78;3.25;;;;;;;11.62;100.00;100686.31;7394191;19;20485;-66
2023/08/09 06:09:48;;;;;;;8.02;3.17;;;;;;;11.62;100.00;100687.19;7392511;19;20376;-66
2023/08/09 06:12:19;;;;;;;3.38;2.95;;;;;;;11.63;100.00;100691.53;7393535;19;20023;-66
2023/08/09 06:14:48;;;;;;;5.57;4.22;;;;;;;11.66;100.00;100687.97;7393270;19;20036;-66
2023/08/09 06:17:16;;;;;;;5.03;3.30;;;;;;;11.70;100.00;100689.59;7394363;19;20071;-66
2023/08/09 06:19:45;;;;;;;3.85;3.35;;;;;;;11.75;100.00;100690.31;7394314;19;20031;-66
2023/08/09 06:22:13;;;;;;;4.03;2.78;;;;;;;11.80;100.00;100696.31;7392700;19;20028;-67
2023/08/09 06:24:42;;;;;;;3.83;3.35;;;;;;;11.86;100.00;100701.41;7392765;19;20015;-67
2023/08/09 06:27:10;;;;;;;3.03;2.70;;;;;;;11.92;100.00;100704.75;7394695;19;20078;-67
2023/08/09 06:29:41;;;;;;;4.32;3.22;;;;;;;11.97;100.00;100693.25;7394552;19;20015;-66
2023/08/09 06:32:10;;;;;;;6.03;2.88;;;;;;;12.01;100.00;100705.41;7393686;19;20014;-67
2023/08/09 06:34:38;;;;;;;4.75;3.08;;;;;;;12.06;100.00;100700.03;7392153;19;20078;-67
2023/08/09 06:37:07;;;;;;;5.22;2.70;;;;;;;12.09;100.00;100699.06;7394056;19;20390;-67
2023/08/09 06:39:36;;;;;;;5.38;2.90;;;;;;;12.11;100.00;100697.28;7392026;19;20374;-68
2023/08/09 06:42:05;;;;;;;3.70;2.70;;;;;;;12.13;100.00;100704.22;7392203;19;20011;-67
2023/08/09 06:44:33;;;;;;;4.50;2.53;;;;;;;12.19;100.00;100708.41;7392310;19;20014;-68
2023/08/09 06:47:04;;;;;;;3.05;2.58;;;;;;;12.22;100.00;100708.34;7394007;19;20042;-66
2023/08/09 06:49:33;;;;;;;3.40;2.53;;;;;;;12.27;100.00;100700.31;7392127;19;20030;-65
2023/08/09 06:52:01;;;;;;;3.58;2.45;;;;;;;12.31;100.00;100709.81;7391668;19;20110;-65
2023/08/09 06:54:30;;;;;;;3.72;2.10;;;;;;;12.36;100.00;100710.56;7392492;19;20014;-65
2023/08/09 06:56:59;;;;;;;3.65;1.80;;;;;;;12.41;99.49;100708.66;7391358;19;20021;-65
2023/08/09 06:59:27;;;;;;;3.75;2.20;;;;;;;12.47;98.85;100712.88;7391601;19;20419;-66
2023/08/09 07:01:56;;;;;;;3.90;2.10;;;;;;;12.54;98.94;100715.25;7393147;19;20031;-65
2023/08/09 07:04:27;;;;;;;6.97;2.35;;;;;;;12.61;98.77;100722.97;7395166;19;20018;-65
2023/08/09 07:06:56;;;;;;;3.58;1.85;;;;;;;12.67;96.12;100720.16;7400638;19;20478;-65
2023/08/09 07:09:24;;;;;;;3.92;2.05;;;;;;;12.75;96.61;100725.19;7400615;19;20470;-65
2023/08/09 07:11:53;;;;;;;2.72;1.90;;;;;;;12.85;95.58;100719.59;7400046;19;20015;-65
2023/08/09 07:14:21;;;;;;;3.42;1.92;;;;;;;12.94;95.84;100728.97;7398133;19;20498;-66
2023/08/09 07:16:57;;;;;;;2.97;2.15;;;;;;;13.03;92.96;100731.31;7397995;19;20011;-67
2023/08/09 07:19:28;;;;;;;4.55;2.08;;;;;;;13.16;93.56;100733.53;7397896;19;20018;-65
2023/08/09 07:21:56;;;;;;;2.67;1.45;;;;;;;13.25;92.99;100721.84;7397501;19;20010;-65
2023/08/09 07:24:25;;;;;;;3.63;1.92;;;;;;;13.28;90.73;100727.00;7398051;19;20074;-65
2023/08/09 07:26:53;;;;;;;4.47;1.98;;;;;;;13.32;92.21;100733.88;7397045;19;20024;-65
2023/08/09 07:29:22;;;;;;;3.50;1.77;;;;;;;13.38;92.04;100738.13;7397808;19;20022;-65
2023/08/09 07:31:50;;;;;;;4.88;1.50;;;;;;;13.45;90.61;100737.88;7399182;19;20038;-65
2023/08/09 07:34:19;;;;;;;5.30;1.70;;;;;;;13.55;90.38;100751.59;7396732;19;20015;-65
2023/08/09 07:36:50;;;;;;;3.28;1.77;;;;;;;13.63;89.76;100749.53;7396716;19;20010;-65
2023/08/09 07:39:19;;;;;;;3.75;1.77;;;;;;;13.71;89.00;100759.84;7397612;19;20044;-65
2023/08/09 07:41:47;;;;;;;5.47;1.52;;;;;;;13.76;88.17;100759.69;7399956;19;20015;-65
2023/08/09 07:44:16;;;;;;;4.50;1.90;;;;;;;13.81;87.78;100763.00;7397125;19;20018;-66
2023/08/09 07:46:44;;;;;;;5.00;1.35;;;;;;;13.87;86.48;100759.31;7399432;19;20015;-65
2023/08/09 07:49:13;;;;;;;4.78;1.58;;;;;;;13.93;86.91;100762.59;7396725;19;20070;-65
2023/08/09 07:51:41;;;;;;;2.85;1.20;;;;;;;13.98;86.76;100760.63;7396461;19;20432;-65
2023/08/09 07:54:12;;;;;;;3.20;1.40;;;;;;;14.06;84.52;100765.63;7397903;19;20025;-66
2023/08/09 07:56:41;;;;;;;5.38;1.80;;;;;;;14.11;83.97;100768.97;7399798;19;20041;-65
2023/08/09 07:59:16;;;;;;;4.97;1.30;;;;;;;14.18;83.40;100775.75;7398813;19;20097;-65
2023/08/09 08:01:44;;;;;;;3.58;1.27;;;;;;;14.27;81.00;100782.47;7399124;19;20019;-65
2023/08/09 08:04:14;;;;;;;2.15;1.00;;;;;;;14.33;80.24;100787.53;7396968;19;20010;-65
2023/08/09 08:06:42;;;;;;;3.38;1.40;;;;;;;14.37;81.51;100782.13;7398549;19;20335;-65
2023/08/09 08:09:13;;;;;;;2.58;0.95;;;;;;;14.38;81.50;100783.84;7396605;19;20018;-65
2023/08/09 08:11:42;;;;;;;3.92;1.40;;;;;;;14.40;81.84;100782.88;7398467;19;20040;-65
2023/08/09 08:14:11;;;;;;;5.32;1.15;;;;;;;14.43;80.52;100780.16;7397044;19;20516;-65
2023/08/09 08:16:40;;;;;;;3.75;1.20;;;;;;;14.48;80.01;100791.38;7397222;19;20023;-64
2023/08/09 08:19:08;;;;;;;2.85;1.15;;;;;;;14.55;78.75;100799.94;7398519;19;20027;-65
2023/08/09 08:21:37;;;;;;;2.95;0.93;;;;;;;14.61;77.22;100790.94;7396368;19;20078;-65
2023/08/09 08:24:08;;;;;;;4.90;1.00;;;;;;;14.69;76.63;100793.31;7396966;19;20010;-65
2023/08/09 08:26:39;;;;;;;2.78;0.90;;;;;;;14.76;74.66;100795.66;7398837;19;20015;-65
2023/08/09 08:29:07;;;;;;;3.67;1.13;;;;;;;14.85;74.46;100799.72;7395415;19;20027;-65
2023/08/09 08:31:36;;;;;;;3.47;0.80;;;;;;;14.94;74.69;100795.88;7397666;19;20011;-65
2023/08/09 08:34:05;;;;;;;5.20;1.27;;;;;;;15.03;73.50;100797.28;7395501;19;20074;-65
2023/08/09 08:36:34;;;;;;;3.60;1.45;;;;;;;15.09;73.26;100803.19;7397880;19;20010;-65
2023/08/09 08:39:05;;;;;;;4.53;1.10;;;;;;;15.17;71.34;100805.50;7397871;19;20033;-65
2023/08/09 08:41:34;;;;;;;3.05;1.00;;;;;;;15.20;70.37;100810.66;7398248;19;20017;-65
2023/08/09 08:44:07;;;;;;;5.45;1.05;;;;;;;15.29;70.08;100809.44;7396157;19;20025;-64
2023/08/09 08:46:36;;;;;;;7.20;0.90;;;;;;;15.36;69.73;100815.34;7396229;19;20027;-64
2023/08/09 08:49:07;;;;;;;4.63;1.38;;;;;;;15.38;68.02;100817.00;7398082;19;20024;-64
2023/08/09 08:51:37;;;;;;;2.05;0.60;;;;;;;15.42;69.72;100812.47;7394946;19;20033;-65
2023/08/09 08:54:06;;;;;;;3.90;1.10;;;;;;;15.46;69.44;100809.63;7395100;19;20026;-65
2023/08/09 08:56:36;;;;;;;3.17;0.90;;;;;;;15.52;69.56;100810.28;7395572;19;20015;-65
2023/08/09 08:59:08;;;;;;;2.88;0.77;;;;;;;15.53;65.64;100812.00;7397141;19;20015;-65
2023/08/09 09:01:37;;;;;;;9.32;0.82;;;;;;;15.55;66.81;100828.69;7395579;19;20035;-70
2023/08/09 09:04:06;;;;;;;2.97;0.75;;;;;;;15.56;67.00;100820.69;7394813;19;20541;-65
2023/08/09 09:06:35;;;;;;;3.85;0.95;;;;;;;15.59;66.74;100824.97;7396561;19;20010;-65
2023/08/09 09:09:11;;;;;;;3.38;0.80;;;;;;;15.64;65.73;100820.34;7396654;19;20493;-66
2023/08/09 09:11:39;;;;;;;6.35;0.93;;;;;;;15.65;62.55;100816.78;7394632;19;20359;-67
2023/08/09 09:14:16;;;;;;;3.50;0.75;;;;;;;15.68;63.97;100814.00;7393942;19;20018;-64
2023/08/09 09:16:45;;;;;;;3.80;0.90;;;;;;;15.73;64.99;100814.69;7394092;19;20019;-66
2023/08/09 09:19:14;;;;;;;4.55;0.68;;;;;;;15.81;63.90;100819.66;7396226;19;20014;-66
2023/08/09 09:21:44;;;;;;;4.45;0.75;;;;;;;15.92;63.57;100819.22;7394464;19;20018;-65
2023/08/09 09:24:13;;;;;;;2.53;0.70;;;;;;;16.03;63.13;100832.84;7395099;19;20015;-67
2023/08/09 09:26:42;;;;;;;4.82;1.33;;;;;;;16.17;63.29;100831.41;7394837;19;20007;-66
2023/08/09 09:29:12;;;;;;;4.20;1.30;;;;;;;16.27;63.28;100822.97;7394415;19;20430;-66
2023/08/09 09:31:43;;;;;;;5.03;1.27;;;;;;;16.40;63.06;100820.66;7395719;19;20477;-67
2023/08/09 09:34:12;;;;;;;2.08;0.80;;;;;;;16.53;60.00;100828.03;7394077;19;20074;-64
2023/08/09 09:36:42;;;;;;;5.20;0.60;;;;;;;16.60;61.99;100829.47;7394143;19;20007;-66
2023/08/09 09:39:12;;;;;;;4.05;0.77;;;;;;;16.68;61.53;100823.81;7395846;19;20010;-67
2023/08/09 09:41:41;;;;;;;8.05;1.00;;;;;;;16.76;60.29;100827.84;7396600;19;20019;-67
2023/08/09 09:44:09;;;;;;;7.53;0.85;;;;;;;16.85;60.60;100829.19;7394634;19;20010;-65
2023/08/09 09:46:45;;;;;;;5.60;1.00;;;;;;;16.96;60.71;100828.75;7395477;19;20028;-65
2023/08/09 09:49:16;;;;;;;3.65;1.02;;;;;;;17.04;59.94;100829.22;7395117;19;20010;-67
2023/08/09 09:51:45;;;;;;;6.70;0.98;;;;;;;17.12;59.87;100835.97;7396070;19;20037;-65
2023/08/09 09:54:15;;;;;;;3.05;1.00;;;;;;;17.19;60.09;100827.63;7393315;19;20014;-66
2023/08/09 09:56:43;;;;;;;4.70;1.00;;;;;;;17.21;60.04;100828.44;7396803;19;20014;-64
2023/08/09 09:59:12;;;;;;;5.25;0.82;;;;;;;17.19;56.82;100826.78;7395179;19;20011;-67
2023/08/09 10:01:47;;;;;;;3.08;1.10;;;;;;;17.19;58.52;100829.44;7395190;19;20379;-66
2023/08/09 10:04:17;;;;;;;4.00;0.77;;;;;;;17.22;60.12;100835.41;7394454;19;20006;-66
2023/08/09 10:06:48;;;;;;;7.40;1.05;;;;;;;17.26;60.22;100837.00;7395114;19;20028;-65
2023/08/09 10:09:19;;;;;;;2.63;1.05;;;;;;;17.35;60.63;100827.75;7395123;19;20031;-68
2023/08/09 10:11:52;;;;;;;3.60;0.80;;;;;;;17.42;59.78;100826.50;7394734;19;20019;-66
2023/08/09 10:14:26;;;;;;;4.18;0.63;;;;;;;17.49;59.88;100831.50;7392684;19;20070;-66
2023/08/09 10:16:57;;;;;;;2.85;1.05;;;;;;;17.56;58.27;100835.59;7394778;19;20010;-65
2023/08/09 10:19:27;;;;;;;8.48;1.38;;;;;;;17.63;57.67;100837.00;7394191;19;20477;-66
2023/08/09 10:21:55;;;;;;;2.38;0.80;;;;;;;17.70;58.38;100838.38;7392426;19;20082;-66
2023/08/09 10:24:24;;;;;;;5.88;1.02;;;;;;;17.70;58.03;100830.44;7392909;19;20018;-66
2023/08/09 10:26:54;;;;;;;6.97;1.40;;;;;;;17.75;57.87;100847.00;7394013;19;20031;-66
2023/08/09 10:29:24;;;;;;;7.93;1.05;;;;;;;17.80;56.92;100838.78;7392148;19;20029;-66
2023/08/09 10:31:55;;;;;;;5.35;0.95;;;;;;;17.84;57.00;100842.16;7394495;19;20015;-66
2023/08/09 10:34:35;;;;;;;4.07;0.80;;;;;;;17.92;54.91;100847.94;7392661;19;20110;-66
2023/08/09 10:37:07;;;;;;;2.88;0.80;;;;;;;17.95;53.81;100855.78;7394176;19;20014;-66
2023/08/09 10:39:37;;;;;;;4.95;1.08;;;;;;;18.02;57.28;100840.38;7398564;19;20006;-66
2023/08/09 10:42:08;;;;;;;5.25;1.33;;;;;;;18.09;56.14;100836.47;7401942;19;20015;-66
2023/08/09 10:44:36;;;;;;;3.50;0.82;;;;;;;18.18;57.35;100845.75;7399353;19;20014;-66
2023/08/09 10:47:07;;;;;;;3.80;1.08;;;;;;;18.28;56.47;100836.38;7401178;19;20485;-67
2023/08/09 10:50:04;;;;;;;1.98;0.50;;;;;;;18.38;51.93;100837.59;7398495;19;20473;-66
2023/08/09 10:52:37;;;;;;;2.45;0.52;;;;;;;18.46;54.98;100839.00;7398095;19;20010;-66
2023/08/09 10:55:29;;;;;;;2.83;0.55;;;;;;;18.46;52.69;100833.69;7399093;19;20078;-67
2023/08/09 10:58:00;;;;;;;4.05;0.77;;;;;;;18.45;54.63;100838.16;7398829;19;20014;-65
2023/08/09 11:00:31;;;;;;;1.80;0.60;;;;;;;18.43;55.74;100828.56;7400806;19;20010;-67
2023/08/09 11:03:01;;;;;;;4.18;1.05;;;;;;;18.44;55.09;100836.44;7400671;19;20007;-66
2023/08/09 11:05:32;;;;;;;2.95;0.70;;;;;;;18.43;54.37;100829.41;7400207;19;20481;-66
2023/08/09 11:08:11;;;;;;;2.10;0.70;;;;;;;18.46;55.10;100833.69;7397516;19;20014;-66
2023/08/09 11:10:41;;;;;;;3.17;0.63;;;;;;;18.48;55.43;100837.97;7400709;19;20011;-66
2023/08/09 11:13:11;;;;;;;5.18;0.88;;;;;;;18.57;54.53;100844.59;7399541;19;20039;-66
2023/08/09 11:15:41;;;;;;;4.65;0.75;;;;;;;18.64;54.94;100842.44;7400245;19;20086;-65
2023/08/09 11:18:10;;;;;;;2.15;0.73;;;;;;;18.70;54.69;100845.66;7397222;19;20006;-68
2023/08/09 11:20:41;;;;;;;3.75;1.17;;;;;;;18.79;53.45;100846.09;7396981;19;20023;-66
2023/08/09 11:23:09;;;;;;;5.03;0.90;;;;;;;18.86;53.39;100844.81;7399659;19;20444;-67
2023/08/09 11:25:38;;;;;;;4.57;0.95;;;;;;;18.93;53.89;100848.88;7399881;19;20369;-67
2023/08/09 11:28:14;;;;;;;2.00;0.60;;;;;;;19.04;51.01;100857.13;7399670;19;20376;-68
2023/08/09 11:30:45;;;;;;;3.63;0.80;;;;;;;19.14;52.93;100856.59;7400264;19;20027;-67
2023/08/09 11:33:14;;;;;;;2.28;1.25;;;;;;;19.21;52.83;100845.53;7399478;19;20032;-67